sensor_id;sensor_type;location;lat;lon;timestamp;temperature;humidity
6752;DHT22;3413;47.680;9.166;2022-07-29T00:06:07;22.30;99.90
6752;DHT22;3413;47.680;9.166;2022-07-29T00:16:11;21.50;99.90
6752;DHT22;3413;47.680;9.166;2022-07-29T00:21:13;21.60;99.90
6752;DHT22;3413;47.680;9.166;2022-07-29T00:26:15;21.90;99.90
6752;DHT22;3413;47.680;9.166;2022-07-29T00:36:19;21.80;99.90
6752;DHT22;3413;47.680;9.166;2022-07-29T00:41:22;21.60;99.90
6752;DHT22;3413;47.680;9.166;2022-07-29T00:56:33;21.10;99.90
6752;DHT22;3413;47.680;9.166;2022-07-29T01:16:51;21.30;99.90
6752;DHT22;3413;47.680;9.166;2022-07-29T01:48:02;20.80;99.90
6752;DHT22;3413;47.680;9.166;2022-07-29T02:08:15;20.50;99.90
6752;DHT22;3413;47.680;9.166;2022-07-29T02:23:25;20.20;99.90
6752;DHT22;3413;47.680;9.166;2022-07-29T02:59:45;21.10;99.90
6752;DHT22;3413;47.680;9.166;2022-07-29T03:14:56;20.60;99.90
6752;DHT22;3413;47.680;9.166;2022-07-29T03:30:11;22.60;99.90
6752;DHT22;3413;47.680;9.166;2022-07-29T03:35:21;20.90;99.90
6752;DHT22;3413;47.680;9.166;2022-07-29T03:40:38;21.00;99.90
6752;DHT22;3413;47.680;9.166;2022-07-29T03:45:42;20.90;99.90
6752;DHT22;3413;47.680;9.166;2022-07-29T03:55:52;20.80;99.90
6752;DHT22;3413;47.680;9.166;2022-07-29T04:11:02;20.00;99.90
6752;DHT22;3413;47.680;9.166;2022-07-29T04:16:04;20.10;99.90
6752;DHT22;3413;47.680;9.166;2022-07-29T04:26:09;20.00;99.90
6752;DHT22;3413;47.680;9.166;2022-07-29T04:41:30;21.30;99.90
6752;DHT22;3413;47.680;9.166;2022-07-29T04:56:39;21.00;99.90
6752;DHT22;3413;47.680;9.166;2022-07-29T05:01:41;20.30;99.90
6752;DHT22;3413;47.680;9.166;2022-07-29T05:16:48;20.20;99.90
6752;DHT22;3413;47.680;9.166;2022-07-29T05:37:01;20.10;99.90
6752;DHT22;3413;47.680;9.166;2022-07-29T05:42:03;20.40;99.90
6752;DHT22;3413;47.680;9.166;2022-07-29T05:47:05;20.20;99.90
6752;DHT22;3413;47.680;9.166;2022-07-29T05:52:08;20.20;99.90
6752;DHT22;3413;47.680;9.166;2022-07-29T05:57:17;20.40;99.90
6752;DHT22;3413;47.680;9.166;2022-07-29T06:12:24;20.90;99.90
6752;DHT22;3413;47.680;9.166;2022-07-29T06:17:26;20.70;99.90
6752;DHT22;3413;47.680;9.166;2022-07-29T06:27:30;21.40;99.90
6752;DHT22;3413;47.680;9.166;2022-07-29T06:37:35;21.90;99.90
6752;DHT22;3413;47.680;9.166;2022-07-29T06:47:47;22.50;99.90
6752;DHT22;3413;47.680;9.166;2022-07-29T06:57:52;21.90;99.90
6752;DHT22;3413;47.680;9.166;2022-07-29T07:07:57;22.60;99.90
6752;DHT22;3413;47.680;9.166;2022-07-29T07:12:59;22.80;99.90
6752;DHT22;3413;47.680;9.166;2022-07-29T07:18:02;22.30;99.90
6752;DHT22;3413;47.680;9.166;2022-07-29T07:23:04;22.30;99.90
6752;DHT22;3413;47.680;9.166;2022-07-29T07:28:06;22.50;99.90
6752;DHT22;3413;47.680;9.166;2022-07-29T07:58:20;22.90;99.90
6752;DHT22;3413;47.680;9.166;2022-07-29T08:08:24;22.50;99.90
6752;DHT22;3413;47.680;9.166;2022-07-29T08:13:26;23.00;99.90
6752;DHT22;3413;47.680;9.166;2022-07-29T08:23:34;23.10;99.90
6752;DHT22;3413;47.680;9.166;2022-07-29T08:39:02;23.90;99.90
6752;DHT22;3413;47.680;9.166;2022-07-29T08:44:04;24.20;99.90
6752;DHT22;3413;47.680;9.166;2022-07-29T08:49:05;23.80;99.90
6752;DHT22;3413;47.680;9.166;2022-07-29T09:04:16;24.20;99.90
6752;DHT22;3413;47.680;9.166;2022-07-29T09:55:16;22.50;99.90
6752;DHT22;3413;47.680;9.166;2022-07-29T10:20:45;23.70;99.90
6752;DHT22;3413;47.680;9.166;2022-07-29T10:25:47;23.80;99.90
6752;DHT22;3413;47.680;9.166;2022-07-29T10:30:51;24.10;99.90
6752;DHT22;3413;47.680;9.166;2022-07-29T10:46:38;25.20;99.90
6752;DHT22;3413;47.680;9.166;2022-07-29T11:01:56;24.30;99.90
6752;DHT22;3413;47.680;9.166;2022-07-29T11:33:30;26.20;99.90
6752;DHT22;3413;47.680;9.166;2022-07-29T11:44:15;26.10;99.90
6752;DHT22;3413;47.680;9.166;2022-07-29T11:54:34;27.10;99.90
6752;DHT22;3413;47.680;9.166;2022-07-29T11:59:58;26.90;99.90
6752;DHT22;3413;47.680;9.166;2022-07-29T12:20:47;27.20;99.90
6752;DHT22;3413;47.680;9.166;2022-07-29T12:25:50;28.00;99.90
6752;DHT22;3413;47.680;9.166;2022-07-29T12:30:54;27.70;99.90
6752;DHT22;3413;47.680;9.166;2022-07-29T12:35:59;27.30;99.90
6752;DHT22;3413;47.680;9.166;2022-07-29T12:56:33;25.70;99.90
6752;DHT22;3413;47.680;9.166;2022-07-29T13:01:49;25.90;99.90
6752;DHT22;3413;47.680;9.166;2022-07-29T13:12:06;25.70;99.90
6752;DHT22;3413;47.680;9.166;2022-07-29T13:27:23;25.40;99.90
6752;DHT22;3413;47.680;9.166;2022-07-29T13:32:28;25.40;99.90
6752;DHT22;3413;47.680;9.166;2022-07-29T13:37:31;25.30;99.90
6752;DHT22;3413;47.680;9.166;2022-07-29T13:47:38;24.80;99.90
6752;DHT22;3413;47.680;9.166;2022-07-29T13:52:45;25.50;99.90
6752;DHT22;3413;47.680;9.166;2022-07-29T13:57:49;25.10;99.90
6752;DHT22;3413;47.680;9.166;2022-07-29T14:23:01;25.50;99.90
6752;DHT22;3413;47.680;9.166;2022-07-29T14:58:17;21.20;99.90
6752;DHT22;3413;47.680;9.166;2022-07-29T15:03:19;21.50;99.90
6752;DHT22;3413;47.680;9.166;2022-07-29T15:13:29;20.80;99.90
6752;DHT22;3413;47.680;9.166;2022-07-29T15:18:31;19.90;99.90
6752;DHT22;3413;47.680;9.166;2022-07-29T15:23:33;20.10;99.90
6752;DHT22;3413;47.680;9.166;2022-07-29T15:28:37;20.50;99.90
6752;DHT22;3413;47.680;9.166;2022-07-29T15:33:40;20.40;99.90
6752;DHT22;3413;47.680;9.166;2022-07-29T15:38:41;20.30;99.90
6752;DHT22;3413;47.680;9.166;2022-07-29T15:48:49;21.00;99.90
6752;DHT22;3413;47.680;9.166;2022-07-29T15:53:51;19.80;99.90
6752;DHT22;3413;47.680;9.166;2022-07-29T15:58:54;19.80;99.90
6752;DHT22;3413;47.680;9.166;2022-07-29T16:03:57;20.00;99.90
6752;DHT22;3413;47.680;9.166;2022-07-29T16:19:04;20.00;99.90
6752;DHT22;3413;47.680;9.166;2022-07-29T16:24:06;19.70;99.90
6752;DHT22;3413;47.680;9.166;2022-07-29T16:29:08;19.60;99.90
6752;DHT22;3413;47.680;9.166;2022-07-29T16:34:10;19.50;99.90
6752;DHT22;3413;47.680;9.166;2022-07-29T16:44:14;19.90;99.90
6752;DHT22;3413;47.680;9.166;2022-07-29T16:49:16;19.40;99.90
6752;DHT22;3413;47.680;9.166;2022-07-29T16:59:22;19.60;99.90
6752;DHT22;3413;47.680;9.166;2022-07-29T17:14:30;19.50;99.90
6752;DHT22;3413;47.680;9.166;2022-07-29T17:19:34;19.20;99.90
6752;DHT22;3413;47.680;9.166;2022-07-29T17:29:41;19.20;99.90
6752;DHT22;3413;47.680;9.166;2022-07-29T17:39:46;20.40;99.90
6752;DHT22;3413;47.680;9.166;2022-07-29T17:44:48;20.40;99.90
6752;DHT22;3413;47.680;9.166;2022-07-29T17:49:50;20.60;99.90
6752;DHT22;3413;47.680;9.166;2022-07-29T17:59:54;21.30;99.90
6752;DHT22;3413;47.680;9.166;2022-07-29T18:04:56;21.30;99.90
6752;DHT22;3413;47.680;9.166;2022-07-29T18:25:07;21.40;99.90
6752;DHT22;3413;47.680;9.166;2022-07-29T18:35:11;21.60;99.90
6752;DHT22;3413;47.680;9.166;2022-07-29T18:40:13;21.30;99.90
6752;DHT22;3413;47.680;9.166;2022-07-29T18:45:16;21.60;99.90
6752;DHT22;3413;47.680;9.166;2022-07-29T18:50:20;21.50;99.90
6752;DHT22;3413;47.680;9.166;2022-07-29T18:55:29;21.90;99.90
6752;DHT22;3413;47.680;9.166;2022-07-29T19:00:31;21.70;99.90
6752;DHT22;3413;47.680;9.166;2022-07-29T19:15:38;19.30;99.90
6752;DHT22;3413;47.680;9.166;2022-07-29T19:25:42;20.70;99.90
6752;DHT22;3413;47.680;9.166;2022-07-29T19:30:55;20.80;99.90
6752;DHT22;3413;47.680;9.166;2022-07-29T19:35:57;20.50;99.90
6752;DHT22;3413;47.680;9.166;2022-07-29T19:51:04;20.80;99.90
6752;DHT22;3413;47.680;9.166;2022-07-29T19:56:06;21.60;99.90
6752;DHT22;3413;47.680;9.166;2022-07-29T20:11:14;21.60;99.90
6752;DHT22;3413;47.680;9.166;2022-07-29T20:26:20;21.50;99.90
6752;DHT22;3413;47.680;9.166;2022-07-29T20:31:22;21.30;99.90
6752;DHT22;3413;47.680;9.166;2022-07-29T20:36:25;20.80;99.90
6752;DHT22;3413;47.680;9.166;2022-07-29T20:46:30;19.90;99.90
6752;DHT22;3413;47.680;9.166;2022-07-29T20:51:32;20.20;99.90
6752;DHT22;3413;47.680;9.166;2022-07-29T21:01:46;20.40;99.90
6752;DHT22;3413;47.680;9.166;2022-07-29T21:06:48;19.30;99.90
6752;DHT22;3413;47.680;9.166;2022-07-29T21:11:50;19.60;99.90
6752;DHT22;3413;47.680;9.166;2022-07-29T21:21:55;19.20;99.90
6752;DHT22;3413;47.680;9.166;2022-07-29T21:32:22;20.10;99.90
6752;DHT22;3413;47.680;9.166;2022-07-29T21:37:31;19.90;99.90
6752;DHT22;3413;47.680;9.166;2022-07-29T21:52:38;19.60;99.90
6752;DHT22;3413;47.680;9.166;2022-07-29T22:02:43;19.40;99.90
6752;DHT22;3413;47.680;9.166;2022-07-29T22:12:59;19.50;99.90
6752;DHT22;3413;47.680;9.166;2022-07-29T22:28:06;19.30;99.90
6752;DHT22;3413;47.680;9.166;2022-07-29T22:33:08;19.30;99.90
6752;DHT22;3413;47.680;9.166;2022-07-29T22:38:18;19.30;99.90
6752;DHT22;3413;47.680;9.166;2022-07-29T23:13:34;19.10;99.90
6752;DHT22;3413;47.680;9.166;2022-07-29T23:18:39;19.40;99.90
6752;DHT22;3413;47.680;9.166;2022-07-29T23:28:46;18.90;99.90
6752;DHT22;3413;47.680;9.166;2022-07-29T23:33:48;19.30;99.90
6752;DHT22;3413;47.680;9.166;2022-07-29T23:38:50;18.60;99.90
6752;DHT22;3413;47.680;9.166;2022-07-29T23:43:51;18.40;99.90
6752;DHT22;3413;47.680;9.166;2022-07-29T23:53:55;18.80;99.90
6752;DHT22;3413;47.680;9.166;2022-07-29T23:58:57;19.40;99.90
